sensor_id;sensor_type;location;lat;lon;timestamp;P1;durP1;ratioP1;P2;durP2;ratioP2
7823;SDS011;3957;48.61947800;9.05303100;2022-07-23T00:00:07;4.13;;;3.63;;
7823;SDS011;3957;48.61947800;9.05303100;2022-07-23T00:01:29;4.20;;;3.05;;
7823;SDS011;3957;48.61947800;9.05303100;2022-07-23T00:02:49;3.55;;;3.13;;
7823;SDS011;3957;48.61947800;9.05303100;2022-07-23T00:04:10;3.55;;;3.03;;
7823;SDS011;3957;48.61947800;9.05303100;2022-07-23T00:05:31;4.63;;;3.50;;
7823;SDS011;3957;48.61947800;9.05303100;2022-07-23T00:06:52;5.63;;;3.67;;
7823;SDS011;3957;48.61947800;9.05303100;2022-07-23T00:08:13;4.43;;;3.20;;
7823;SDS011;3957;48.61947800;9.05303100;2022-07-23T00:09:34;4.75;;;3.40;;
7823;SDS011;3957;48.61947800;9.05303100;2022-07-23T00:10:55;3.58;;;3.25;;
7823;SDS011;3957;48.61947800;9.05303100;2022-07-23T00:12:15;4.43;;;3.30;;
7823;SDS011;3957;48.61947800;9.05303100;2022-07-23T00:13:36;3.95;;;3.42;;
7823;SDS011;3957;48.61947800;9.05303100;2022-07-23T00:14:57;4.15;;;2.97;;
7823;SDS011;3957;48.61947800;9.05303100;2022-07-23T00:16:18;4.57;;;3.28;;
7823;SDS011;3957;48.61947800;9.05303100;2022-07-23T00:17:39;4.68;;;3.30;;
7823;SDS011;3957;48.61947800;9.05303100;2022-07-23T00:19:00;4.68;;;3.05;;
7823;SDS011;3957;48.61947800;9.05303100;2022-07-23T00:20:24;5.90;;;3.55;;
7823;SDS011;3957;48.61947800;9.05303100;2022-07-23T00:21:45;3.47;;;3.10;;
7823;SDS011;3957;48.61947800;9.05303100;2022-07-23T00:23:05;3.40;;;3.10;;
7823;SDS011;3957;48.61947800;9.05303100;2022-07-23T00:24:26;3.63;;;3.25;;
7823;SDS011;3957;48.61947800;9.05303100;2022-07-23T00:25:47;4.88;;;2.95;;
7823;SDS011;3957;48.61947800;9.05303100;2022-07-23T00:27:08;3.60;;;2.80;;
7823;SDS011;3957;48.61947800;9.05303100;2022-07-23T00:28:28;3.47;;;2.90;;
7823;SDS011;3957;48.61947800;9.05303100;2022-07-23T00:29:49;3.50;;;3.20;;
7823;SDS011;3957;48.61947800;9.05303100;2022-07-23T00:31:10;4.43;;;3.25;;
7823;SDS011;3957;48.61947800;9.05303100;2022-07-23T00:32:31;3.97;;;2.97;;
7823;SDS011;3957;48.61947800;9.05303100;2022-07-23T00:33:52;3.08;;;2.78;;
7823;SDS011;3957;48.61947800;9.05303100;2022-07-23T00:35:19;3.88;;;3.05;;
7823;SDS011;3957;48.61947800;9.05303100;2022-07-23T00:36:40;4.45;;;3.00;;
7823;SDS011;3957;48.61947800;9.05303100;2022-07-23T00:38:02;4.07;;;2.97;;
7823;SDS011;3957;48.61947800;9.05303100;2022-07-23T00:39:23;3.17;;;2.75;;
7823;SDS011;3957;48.61947800;9.05303100;2022-07-23T00:40:45;4.82;;;3.03;;
7823;SDS011;3957;48.61947800;9.05303100;2022-07-23T00:42:06;4.60;;;2.67;;
7823;SDS011;3957;48.61947800;9.05303100;2022-07-23T00:43:26;5.15;;;2.97;;
7823;SDS011;3957;48.61947800;9.05303100;2022-07-23T00:44:47;3.92;;;2.88;;
7823;SDS011;3957;48.61947800;9.05303100;2022-07-23T00:46:08;5.22;;;3.10;;
7823;SDS011;3957;48.61947800;9.05303100;2022-07-23T00:47:29;3.80;;;2.70;;
7823;SDS011;3957;48.61947800;9.05303100;2022-07-23T00:48:50;4.88;;;3.00;;
7823;SDS011;3957;48.61947800;9.05303100;2022-07-23T00:50:10;3.65;;;3.10;;
7823;SDS011;3957;48.61947800;9.05303100;2022-07-23T00:51:32;3.45;;;2.75;;
7823;SDS011;3957;48.61947800;9.05303100;2022-07-23T00:52:53;3.17;;;2.88;;
7823;SDS011;3957;48.61947800;9.05303100;2022-07-23T00:54:15;3.20;;;2.90;;
7823;SDS011;3957;48.61947800;9.05303100;2022-07-23T00:55:37;4.60;;;2.70;;
7823;SDS011;3957;48.61947800;9.05303100;2022-07-23T00:56:58;4.75;;;3.25;;
7823;SDS011;3957;48.61947800;9.05303100;2022-07-23T00:58:19;3.25;;;2.95;;
7823;SDS011;3957;48.61947800;9.05303100;2022-07-23T00:59:40;4.55;;;3.17;;
7823;SDS011;3957;48.61947800;9.05303100;2022-07-23T01:01:01;3.05;;;2.75;;
7823;SDS011;3957;48.61947800;9.05303100;2022-07-23T01:02:23;3.45;;;2.60;;
7823;SDS011;3957;48.61947800;9.05303100;2022-07-23T01:03:44;3.22;;;2.60;;
7823;SDS011;3957;48.61947800;9.05303100;2022-07-23T01:05:05;3.20;;;2.90;;
7823;SDS011;3957;48.61947800;9.05303100;2022-07-23T01:06:27;3.22;;;2.92;;
7823;SDS011;3957;48.61947800;9.05303100;2022-07-23T01:07:48;5.97;;;3.03;;
7823;SDS011;3957;48.61947800;9.05303100;2022-07-23T01:09:10;3.58;;;2.90;;
7823;SDS011;3957;48.61947800;9.05303100;2022-07-23T01:10:31;4.40;;;2.90;;
7823;SDS011;3957;48.61947800;9.05303100;2022-07-23T01:11:53;5.13;;;2.88;;
7823;SDS011;3957;48.61947800;9.05303100;2022-07-23T01:13:15;4.10;;;3.10;;
7823;SDS011;3957;48.61947800;9.05303100;2022-07-23T01:14:36;4.05;;;3.40;;
7823;SDS011;3957;48.61947800;9.05303100;2022-07-23T01:15:57;4.43;;;2.95;;
7823;SDS011;3957;48.61947800;9.05303100;2022-07-23T01:17:18;3.25;;;2.95;;
7823;SDS011;3957;48.61947800;9.05303100;2022-07-23T01:18:39;6.13;;;2.95;;
7823;SDS011;3957;48.61947800;9.05303100;2022-07-23T01:19:59;4.40;;;3.50;;
7823;SDS011;3957;48.61947800;9.05303100;2022-07-23T01:21:20;3.50;;;3.20;;
7823;SDS011;3957;48.61947800;9.05303100;2022-07-23T01:22:42;4.32;;;3.40;;
7823;SDS011;3957;48.61947800;9.05303100;2022-07-23T01:24:03;3.95;;;3.55;;
7823;SDS011;3957;48.61947800;9.05303100;2022-07-23T01:25:26;3.53;;;3.22;;
7823;SDS011;3957;48.61947800;9.05303100;2022-07-23T01:26:53;4.72;;;3.05;;
7823;SDS011;3957;48.61947800;9.05303100;2022-07-23T01:28:14;4.72;;;3.60;;
7823;SDS011;3957;48.61947800;9.05303100;2022-07-23T01:29:35;3.75;;;3.08;;
7823;SDS011;3957;48.61947800;9.05303100;2022-07-23T01:31:00;4.30;;;3.03;;
7823;SDS011;3957;48.61947800;9.05303100;2022-07-23T01:32:26;4.07;;;3.47;;
7823;SDS011;3957;48.61947800;9.05303100;2022-07-23T01:33:47;4.57;;;3.05;;
7823;SDS011;3957;48.61947800;9.05303100;2022-07-23T01:35:08;4.18;;;3.17;;
7823;SDS011;3957;48.61947800;9.05303100;2022-07-23T01:36:29;4.55;;;3.10;;
7823;SDS011;3957;48.61947800;9.05303100;2022-07-23T01:37:50;4.45;;;3.20;;
7823;SDS011;3957;48.61947800;9.05303100;2022-07-23T01:39:12;4.78;;;3.20;;
7823;SDS011;3957;48.61947800;9.05303100;2022-07-23T01:40:33;3.70;;;3.00;;
7823;SDS011;3957;48.61947800;9.05303100;2022-07-23T01:41:54;4.78;;;3.13;;
7823;SDS011;3957;48.61947800;9.05303100;2022-07-23T01:43:16;4.18;;;3.53;;
7823;SDS011;3957;48.61947800;9.05303100;2022-07-23T01:44:36;3.85;;;3.38;;
7823;SDS011;3957;48.61947800;9.05303100;2022-07-23T01:45:58;4.60;;;3.13;;
7823;SDS011;3957;48.61947800;9.05303100;2022-07-23T01:47:23;3.72;;;3.20;;
7823;SDS011;3957;48.61947800;9.05303100;2022-07-23T01:48:47;4.20;;;3.60;;
7823;SDS011;3957;48.61947800;9.05303100;2022-07-23T01:50:24;3.92;;;3.15;;
7823;SDS011;3957;48.61947800;9.05303100;2022-07-23T01:52:03;4.75;;;3.30;;
7823;SDS011;3957;48.61947800;9.05303100;2022-07-23T01:53:38;4.05;;;3.28;;
7823;SDS011;3957;48.61947800;9.05303100;2022-07-23T01:54:59;3.47;;;2.85;;
7823;SDS011;3957;48.61947800;9.05303100;2022-07-23T01:56:20;4.38;;;3.25;;
7823;SDS011;3957;48.61947800;9.05303100;2022-07-23T01:57:41;3.67;;;3.10;;
7823;SDS011;3957;48.61947800;9.05303100;2022-07-23T01:59:03;3.58;;;2.90;;
7823;SDS011;3957;48.61947800;9.05303100;2022-07-23T02:00:24;3.83;;;3.15;;
7823;SDS011;3957;48.61947800;9.05303100;2022-07-23T02:01:46;4.10;;;3.30;;
7823;SDS011;3957;48.61947800;9.05303100;2022-07-23T02:03:07;4.28;;;3.72;;
7823;SDS011;3957;48.61947800;9.05303100;2022-07-23T02:04:28;5.30;;;3.30;;
7823;SDS011;3957;48.61947800;9.05303100;2022-07-23T02:05:49;3.72;;;2.97;;
7823;SDS011;3957;48.61947800;9.05303100;2022-07-23T02:07:10;4.47;;;3.40;;
7823;SDS011;3957;48.61947800;9.05303100;2022-07-23T02:08:31;3.55;;;2.97;;
7823;SDS011;3957;48.61947800;9.05303100;2022-07-23T02:09:52;3.85;;;3.10;;
7823;SDS011;3957;48.61947800;9.05303100;2022-07-23T02:11:13;5.60;;;3.30;;
7823;SDS011;3957;48.61947800;9.05303100;2022-07-23T02:12:33;4.30;;;3.28;;
7823;SDS011;3957;48.61947800;9.05303100;2022-07-23T02:13:54;5.35;;;3.28;;
7823;SDS011;3957;48.61947800;9.05303100;2022-07-23T02:15:16;5.55;;;3.35;;
7823;SDS011;3957;48.61947800;9.05303100;2022-07-23T02:16:36;4.72;;;3.10;;
7823;SDS011;3957;48.61947800;9.05303100;2022-07-23T02:17:57;4.53;;;3.53;;
7823;SDS011;3957;48.61947800;9.05303100;2022-07-23T02:19:18;5.65;;;2.95;;
7823;SDS011;3957;48.61947800;9.05303100;2022-07-23T02:20:39;3.35;;;3.00;;
7823;SDS011;3957;48.61947800;9.05303100;2022-07-23T02:22:02;3.78;;;3.28;;
7823;SDS011;3957;48.61947800;9.05303100;2022-07-23T02:23:22;3.63;;;3.20;;
7823;SDS011;3957;48.61947800;9.05303100;2022-07-23T02:24:43;4.17;;;2.90;;
7823;SDS011;3957;48.61947800;9.05303100;2022-07-23T02:26:04;3.47;;;3.03;;
7823;SDS011;3957;48.61947800;9.05303100;2022-07-23T02:27:25;3.20;;;2.70;;
7823;SDS011;3957;48.61947800;9.05303100;2022-07-23T02:28:47;4.63;;;3.50;;
7823;SDS011;3957;48.61947800;9.05303100;2022-07-23T02:30:08;5.68;;;3.50;;
7823;SDS011;3957;48.61947800;9.05303100;2022-07-23T02:31:29;3.95;;;3.13;;
7823;SDS011;3957;48.61947800;9.05303100;2022-07-23T02:32:51;5.55;;;3.65;;
7823;SDS011;3957;48.61947800;9.05303100;2022-07-23T02:34:12;4.32;;;2.92;;
7823;SDS011;3957;48.61947800;9.05303100;2022-07-23T02:35:33;3.70;;;3.20;;
7823;SDS011;3957;48.61947800;9.05303100;2022-07-23T02:36:55;3.37;;;3.07;;
7823;SDS011;3957;48.61947800;9.05303100;2022-07-23T02:38:17;4.40;;;3.40;;
7823;SDS011;3957;48.61947800;9.05303100;2022-07-23T02:39:39;4.70;;;3.20;;
7823;SDS011;3957;48.61947800;9.05303100;2022-07-23T02:41:01;4.88;;;3.13;;
7823;SDS011;3957;48.61947800;9.05303100;2022-07-23T02:42:22;4.00;;;3.20;;
7823;SDS011;3957;48.61947800;9.05303100;2022-07-23T02:43:44;4.18;;;3.35;;
7823;SDS011;3957;48.61947800;9.05303100;2022-07-23T02:45:06;4.38;;;3.35;;
7823;SDS011;3957;48.61947800;9.05303100;2022-07-23T02:46:27;3.83;;;3.30;;
7823;SDS011;3957;48.61947800;9.05303100;2022-07-23T02:47:50;3.72;;;3.03;;
7823;SDS011;3957;48.61947800;9.05303100;2022-07-23T02:49:10;3.67;;;3.13;;
7823;SDS011;3957;48.61947800;9.05303100;2022-07-23T02:50:32;3.50;;;3.13;;
7823;SDS011;3957;48.61947800;9.05303100;2022-07-23T02:51:54;3.22;;;2.67;;
7823;SDS011;3957;48.61947800;9.05303100;2022-07-23T02:53:15;4.05;;;3.10;;
7823;SDS011;3957;48.61947800;9.05303100;2022-07-23T02:54:37;4.40;;;2.83;;
7823;SDS011;3957;48.61947800;9.05303100;2022-07-23T02:55:58;4.45;;;3.00;;
7823;SDS011;3957;48.61947800;9.05303100;2022-07-23T02:57:18;3.55;;;3.25;;
7823;SDS011;3957;48.61947800;9.05303100;2022-07-23T02:58:39;5.30;;;3.05;;
7823;SDS011;3957;48.61947800;9.05303100;2022-07-23T03:00:00;3.85;;;3.15;;
7823;SDS011;3957;48.61947800;9.05303100;2022-07-23T03:01:21;3.35;;;3.05;;
7823;SDS011;3957;48.61947800;9.05303100;2022-07-23T03:02:42;4.03;;;3.20;;
7823;SDS011;3957;48.61947800;9.05303100;2022-07-23T03:04:03;3.75;;;3.05;;
7823;SDS011;3957;48.61947800;9.05303100;2022-07-23T03:05:23;3.50;;;2.95;;
7823;SDS011;3957;48.61947800;9.05303100;2022-07-23T03:06:44;3.45;;;3.05;;
7823;SDS011;3957;48.61947800;9.05303100;2022-07-23T03:08:05;4.25;;;3.20;;
7823;SDS011;3957;48.61947800;9.05303100;2022-07-23T03:09:28;4.20;;;3.20;;
7823;SDS011;3957;48.61947800;9.05303100;2022-07-23T03:10:49;4.20;;;3.38;;
7823;SDS011;3957;48.61947800;9.05303100;2022-07-23T03:12:10;5.35;;;3.40;;
7823;SDS011;3957;48.61947800;9.05303100;2022-07-23T03:13:31;3.40;;;3.10;;
7823;SDS011;3957;48.61947800;9.05303100;2022-07-23T03:14:52;4.28;;;3.42;;
7823;SDS011;3957;48.61947800;9.05303100;2022-07-23T03:16:12;3.85;;;3.28;;
7823;SDS011;3957;48.61947800;9.05303100;2022-07-23T03:17:33;4.30;;;2.90;;
7823;SDS011;3957;48.61947800;9.05303100;2022-07-23T03:18:54;3.42;;;2.97;;
7823;SDS011;3957;48.61947800;9.05303100;2022-07-23T03:20:15;3.50;;;3.20;;
7823;SDS011;3957;48.61947800;9.05303100;2022-07-23T03:21:36;3.42;;;3.13;;
7823;SDS011;3957;48.61947800;9.05303100;2022-07-23T03:23:00;4.78;;;3.20;;
7823;SDS011;3957;48.61947800;9.05303100;2022-07-23T03:24:22;3.15;;;2.80;;
7823;SDS011;3957;48.61947800;9.05303100;2022-07-23T03:26:03;3.40;;;3.05;;
7823;SDS011;3957;48.61947800;9.05303100;2022-07-23T03:27:25;5.57;;;3.17;;
7823;SDS011;3957;48.61947800;9.05303100;2022-07-23T03:28:47;4.30;;;3.30;;
7823;SDS011;3957;48.61947800;9.05303100;2022-07-23T03:30:07;3.90;;;3.10;;
7823;SDS011;3957;48.61947800;9.05303100;2022-07-23T03:31:29;3.67;;;3.33;;
7823;SDS011;3957;48.61947800;9.05303100;2022-07-23T03:32:51;4.05;;;3.50;;
7823;SDS011;3957;48.61947800;9.05303100;2022-07-23T03:34:12;5.25;;;4.55;;
7823;SDS011;3957;48.61947800;9.05303100;2022-07-23T03:35:33;7.40;;;4.22;;
7823;SDS011;3957;48.61947800;9.05303100;2022-07-23T03:37:11;4.40;;;3.78;;
7823;SDS011;3957;48.61947800;9.05303100;2022-07-23T03:38:32;5.15;;;3.70;;
7823;SDS011;3957;48.61947800;9.05303100;2022-07-23T03:39:53;4.68;;;3.78;;
7823;SDS011;3957;48.61947800;9.05303100;2022-07-23T03:41:14;6.82;;;3.95;;
7823;SDS011;3957;48.61947800;9.05303100;2022-07-23T03:42:35;6.85;;;4.13;;
7823;SDS011;3957;48.61947800;9.05303100;2022-07-23T03:43:57;4.80;;;4.30;;
7823;SDS011;3957;48.61947800;9.05303100;2022-07-23T03:45:18;5.50;;;4.10;;
7823;SDS011;3957;48.61947800;9.05303100;2022-07-23T03:46:39;7.10;;;4.13;;
7823;SDS011;3957;48.61947800;9.05303100;2022-07-23T03:47:59;5.47;;;4.18;;
7823;SDS011;3957;48.61947800;9.05303100;2022-07-23T03:49:20;6.03;;;4.25;;
7823;SDS011;3957;48.61947800;9.05303100;2022-07-23T03:50:41;4.65;;;3.90;;
7823;SDS011;3957;48.61947800;9.05303100;2022-07-23T03:52:02;5.80;;;4.32;;
7823;SDS011;3957;48.61947800;9.05303100;2022-07-23T03:53:24;5.22;;;4.40;;
7823;SDS011;3957;48.61947800;9.05303100;2022-07-23T03:54:45;4.38;;;3.97;;
7823;SDS011;3957;48.61947800;9.05303100;2022-07-23T03:56:06;5.85;;;4.30;;
7823;SDS011;3957;48.61947800;9.05303100;2022-07-23T03:57:28;4.63;;;3.75;;
7823;SDS011;3957;48.61947800;9.05303100;2022-07-23T03:58:49;4.53;;;3.63;;
7823;SDS011;3957;48.61947800;9.05303100;2022-07-23T04:00:10;3.92;;;3.40;;
7823;SDS011;3957;48.61947800;9.05303100;2022-07-23T04:01:36;4.22;;;3.53;;
7823;SDS011;3957;48.61947800;9.05303100;2022-07-23T04:02:57;3.92;;;3.47;;
7823;SDS011;3957;48.61947800;9.05303100;2022-07-23T04:04:17;3.97;;;3.58;;
7823;SDS011;3957;48.61947800;9.05303100;2022-07-23T04:05:39;5.17;;;3.70;;
7823;SDS011;3957;48.61947800;9.05303100;2022-07-23T04:07:01;3.88;;;3.35;;
7823;SDS011;3957;48.61947800;9.05303100;2022-07-23T04:08:23;4.53;;;3.63;;
7823;SDS011;3957;48.61947800;9.05303100;2022-07-23T04:09:46;5.55;;;4.10;;
7823;SDS011;3957;48.61947800;9.05303100;2022-07-23T04:11:07;4.15;;;3.65;;
7823;SDS011;3957;48.61947800;9.05303100;2022-07-23T04:12:27;4.40;;;4.00;;
7823;SDS011;3957;48.61947800;9.05303100;2022-07-23T04:13:48;5.00;;;3.97;;
7823;SDS011;3957;48.61947800;9.05303100;2022-07-23T04:15:09;4.37;;;3.60;;
7823;SDS011;3957;48.61947800;9.05303100;2022-07-23T04:16:30;4.28;;;3.63;;
7823;SDS011;3957;48.61947800;9.05303100;2022-07-23T04:17:51;4.57;;;4.18;;
7823;SDS011;3957;48.61947800;9.05303100;2022-07-23T04:19:15;4.20;;;3.80;;
7823;SDS011;3957;48.61947800;9.05303100;2022-07-23T04:20:48;5.15;;;3.30;;
7823;SDS011;3957;48.61947800;9.05303100;2022-07-23T04:22:10;4.25;;;3.80;;
7823;SDS011;3957;48.61947800;9.05303100;2022-07-23T04:23:32;5.55;;;4.03;;
7823;SDS011;3957;48.61947800;9.05303100;2022-07-23T04:24:52;4.78;;;3.72;;
7823;SDS011;3957;48.61947800;9.05303100;2022-07-23T04:26:13;4.00;;;3.50;;
7823;SDS011;3957;48.61947800;9.05303100;2022-07-23T04:27:34;5.40;;;3.78;;
7823;SDS011;3957;48.61947800;9.05303100;2022-07-23T04:28:55;5.07;;;3.72;;
7823;SDS011;3957;48.61947800;9.05303100;2022-07-23T04:30:16;5.20;;;3.90;;
7823;SDS011;3957;48.61947800;9.05303100;2022-07-23T04:31:37;4.35;;;3.90;;
7823;SDS011;3957;48.61947800;9.05303100;2022-07-23T04:32:58;4.75;;;3.88;;
7823;SDS011;3957;48.61947800;9.05303100;2022-07-23T04:34:22;4.35;;;3.95;;
7823;SDS011;3957;48.61947800;9.05303100;2022-07-23T04:35:43;4.47;;;3.97;;
7823;SDS011;3957;48.61947800;9.05303100;2022-07-23T04:37:08;4.40;;;3.58;;
7823;SDS011;3957;48.61947800;9.05303100;2022-07-23T04:38:30;4.47;;;3.65;;
7823;SDS011;3957;48.61947800;9.05303100;2022-07-23T04:39:54;4.18;;;3.78;;
7823;SDS011;3957;48.61947800;9.05303100;2022-07-23T04:41:17;4.72;;;4.07;;
7823;SDS011;3957;48.61947800;9.05303100;2022-07-23T04:42:37;5.68;;;4.18;;
7823;SDS011;3957;48.61947800;9.05303100;2022-07-23T04:43:58;4.03;;;3.60;;
7823;SDS011;3957;48.61947800;9.05303100;2022-07-23T04:45:19;3.70;;;3.35;;
7823;SDS011;3957;48.61947800;9.05303100;2022-07-23T04:46:42;5.35;;;3.60;;
7823;SDS011;3957;48.61947800;9.05303100;2022-07-23T04:48:03;4.03;;;3.63;;
7823;SDS011;3957;48.61947800;9.05303100;2022-07-23T04:49:24;4.45;;;3.60;;
7823;SDS011;3957;48.61947800;9.05303100;2022-07-23T04:50:45;3.97;;;3.58;;
7823;SDS011;3957;48.61947800;9.05303100;2022-07-23T04:52:11;5.22;;;3.75;;
7823;SDS011;3957;48.61947800;9.05303100;2022-07-23T04:53:33;3.95;;;3.50;;
7823;SDS011;3957;48.61947800;9.05303100;2022-07-23T04:54:55;4.90;;;3.70;;
7823;SDS011;3957;48.61947800;9.05303100;2022-07-23T04:56:16;4.32;;;3.55;;
7823;SDS011;3957;48.61947800;9.05303100;2022-07-23T04:57:36;3.97;;;3.35;;
7823;SDS011;3957;48.61947800;9.05303100;2022-07-23T04:58:57;4.30;;;3.90;;
7823;SDS011;3957;48.61947800;9.05303100;2022-07-23T05:00:18;4.30;;;3.83;;
7823;SDS011;3957;48.61947800;9.05303100;2022-07-23T05:01:39;4.15;;;3.33;;
7823;SDS011;3957;48.61947800;9.05303100;2022-07-23T05:02:59;5.30;;;3.90;;
7823;SDS011;3957;48.61947800;9.05303100;2022-07-23T05:04:21;4.60;;;3.70;;
7823;SDS011;3957;48.61947800;9.05303100;2022-07-23T05:05:43;4.20;;;3.55;;
7823;SDS011;3957;48.61947800;9.05303100;2022-07-23T05:07:08;4.53;;;3.33;;
7823;SDS011;3957;48.61947800;9.05303100;2022-07-23T05:08:29;3.30;;;2.92;;
7823;SDS011;3957;48.61947800;9.05303100;2022-07-23T05:09:52;4.43;;;3.78;;
7823;SDS011;3957;48.61947800;9.05303100;2022-07-23T05:11:13;4.88;;;3.72;;
7823;SDS011;3957;48.61947800;9.05303100;2022-07-23T05:12:33;3.90;;;3.50;;
7823;SDS011;3957;48.61947800;9.05303100;2022-07-23T05:13:54;4.47;;;3.60;;
7823;SDS011;3957;48.61947800;9.05303100;2022-07-23T05:15:16;5.68;;;3.55;;
7823;SDS011;3957;48.61947800;9.05303100;2022-07-23T05:16:36;4.43;;;3.55;;
7823;SDS011;3957;48.61947800;9.05303100;2022-07-23T05:18:03;4.55;;;3.88;;
7823;SDS011;3957;48.61947800;9.05303100;2022-07-23T05:19:24;4.65;;;3.60;;
7823;SDS011;3957;48.61947800;9.05303100;2022-07-23T05:20:44;5.38;;;3.78;;
7823;SDS011;3957;48.61947800;9.05303100;2022-07-23T05:22:09;4.00;;;3.60;;
7823;SDS011;3957;48.61947800;9.05303100;2022-07-23T05:23:30;4.10;;;3.55;;
7823;SDS011;3957;48.61947800;9.05303100;2022-07-23T05:24:51;4.77;;;3.77;;
7823;SDS011;3957;48.61947800;9.05303100;2022-07-23T05:26:11;4.60;;;3.60;;
7823;SDS011;3957;48.61947800;9.05303100;2022-07-23T05:27:33;5.22;;;3.50;;
7823;SDS011;3957;48.61947800;9.05303100;2022-07-23T05:28:53;4.30;;;3.70;;
7823;SDS011;3957;48.61947800;9.05303100;2022-07-23T05:30:14;5.63;;;3.70;;
7823;SDS011;3957;48.61947800;9.05303100;2022-07-23T05:31:37;4.05;;;3.55;;
7823;SDS011;3957;48.61947800;9.05303100;2022-07-23T05:33:00;3.90;;;3.50;;
7823;SDS011;3957;48.61947800;9.05303100;2022-07-23T05:34:20;5.23;;;3.60;;
7823;SDS011;3957;48.61947800;9.05303100;2022-07-23T05:35:42;4.43;;;3.30;;
7823;SDS011;3957;48.61947800;9.05303100;2022-07-23T05:37:13;3.92;;;3.40;;
7823;SDS011;3957;48.61947800;9.05303100;2022-07-23T05:38:34;4.97;;;3.63;;
7823;SDS011;3957;48.61947800;9.05303100;2022-07-23T05:39:59;4.68;;;3.90;;
7823;SDS011;3957;48.61947800;9.05303100;2022-07-23T05:41:22;5.93;;;4.05;;
7823;SDS011;3957;48.61947800;9.05303100;2022-07-23T05:42:43;4.03;;;3.57;;
7823;SDS011;3957;48.61947800;9.05303100;2022-07-23T05:44:04;4.32;;;3.92;;
7823;SDS011;3957;48.61947800;9.05303100;2022-07-23T05:45:26;4.60;;;3.72;;
7823;SDS011;3957;48.61947800;9.05303100;2022-07-23T05:46:47;4.40;;;3.92;;
7823;SDS011;3957;48.61947800;9.05303100;2022-07-23T05:48:13;5.07;;;3.97;;
7823;SDS011;3957;48.61947800;9.05303100;2022-07-23T05:49:50;4.43;;;3.97;;
7823;SDS011;3957;48.61947800;9.05303100;2022-07-23T05:51:23;6.40;;;4.30;;
7823;SDS011;3957;48.61947800;9.05303100;2022-07-23T05:52:45;4.60;;;3.88;;
7823;SDS011;3957;48.61947800;9.05303100;2022-07-23T05:54:29;5.65;;;3.80;;
7823;SDS011;3957;48.61947800;9.05303100;2022-07-23T05:55:50;4.45;;;3.90;;
7823;SDS011;3957;48.61947800;9.05303100;2022-07-23T05:57:10;4.53;;;3.75;;
7823;SDS011;3957;48.61947800;9.05303100;2022-07-23T05:58:31;5.43;;;4.03;;
7823;SDS011;3957;48.61947800;9.05303100;2022-07-23T05:59:52;4.55;;;4.10;;
7823;SDS011;3957;48.61947800;9.05303100;2022-07-23T06:01:13;4.30;;;3.90;;
7823;SDS011;3957;48.61947800;9.05303100;2022-07-23T06:02:40;5.32;;;4.25;;
7823;SDS011;3957;48.61947800;9.05303100;2022-07-23T06:04:03;4.30;;;3.87;;
7823;SDS011;3957;48.61947800;9.05303100;2022-07-23T06:05:29;5.13;;;3.92;;
7823;SDS011;3957;48.61947800;9.05303100;2022-07-23T06:06:51;6.10;;;4.18;;
7823;SDS011;3957;48.61947800;9.05303100;2022-07-23T06:08:12;4.68;;;3.80;;
7823;SDS011;3957;48.61947800;9.05303100;2022-07-23T06:09:33;4.75;;;3.80;;
7823;SDS011;3957;48.61947800;9.05303100;2022-07-23T06:10:54;5.20;;;4.10;;
7823;SDS011;3957;48.61947800;9.05303100;2022-07-23T06:12:15;4.30;;;3.85;;
7823;SDS011;3957;48.61947800;9.05303100;2022-07-23T06:13:36;4.53;;;3.95;;
7823;SDS011;3957;48.61947800;9.05303100;2022-07-23T06:14:57;6.82;;;4.13;;
7823;SDS011;3957;48.61947800;9.05303100;2022-07-23T06:16:18;4.97;;;3.78;;
7823;SDS011;3957;48.61947800;9.05303100;2022-07-23T06:17:40;5.05;;;3.85;;
7823;SDS011;3957;48.61947800;9.05303100;2022-07-23T06:19:00;6.95;;;4.35;;
7823;SDS011;3957;48.61947800;9.05303100;2022-07-23T06:20:24;5.93;;;4.40;;
7823;SDS011;3957;48.61947800;9.05303100;2022-07-23T06:21:45;5.40;;;4.00;;
7823;SDS011;3957;48.61947800;9.05303100;2022-07-23T06:23:05;4.47;;;4.05;;
7823;SDS011;3957;48.61947800;9.05303100;2022-07-23T06:24:26;6.25;;;4.15;;
7823;SDS011;3957;48.61947800;9.05303100;2022-07-23T06:25:47;4.28;;;3.65;;
7823;SDS011;3957;48.61947800;9.05303100;2022-07-23T06:27:08;4.75;;;4.18;;
7823;SDS011;3957;48.61947800;9.05303100;2022-07-23T06:28:29;4.38;;;3.70;;
7823;SDS011;3957;48.61947800;9.05303100;2022-07-23T06:29:51;4.65;;;4.15;;
7823;SDS011;3957;48.61947800;9.05303100;2022-07-23T06:31:12;4.80;;;4.30;;
7823;SDS011;3957;48.61947800;9.05303100;2022-07-23T06:32:32;4.90;;;4.40;;
7823;SDS011;3957;48.61947800;9.05303100;2022-07-23T06:33:53;4.90;;;4.00;;
7823;SDS011;3957;48.61947800;9.05303100;2022-07-23T06:35:15;5.65;;;4.10;;
7823;SDS011;3957;48.61947800;9.05303100;2022-07-23T06:36:36;4.90;;;4.13;;
7823;SDS011;3957;48.61947800;9.05303100;2022-07-23T06:37:57;5.18;;;4.15;;
7823;SDS011;3957;48.61947800;9.05303100;2022-07-23T06:39:18;7.65;;;4.38;;
7823;SDS011;3957;48.61947800;9.05303100;2022-07-23T06:40:42;6.70;;;4.25;;
7823;SDS011;3957;48.61947800;9.05303100;2022-07-23T06:42:04;4.75;;;3.90;;
7823;SDS011;3957;48.61947800;9.05303100;2022-07-23T06:43:32;4.38;;;3.97;;
7823;SDS011;3957;48.61947800;9.05303100;2022-07-23T06:44:53;5.75;;;4.10;;
7823;SDS011;3957;48.61947800;9.05303100;2022-07-23T06:46:13;4.97;;;4.30;;
7823;SDS011;3957;48.61947800;9.05303100;2022-07-23T06:47:34;5.50;;;4.60;;
7823;SDS011;3957;48.61947800;9.05303100;2022-07-23T06:48:55;6.13;;;4.60;;
7823;SDS011;3957;48.61947800;9.05303100;2022-07-23T06:50:16;4.82;;;4.32;;
7823;SDS011;3957;48.61947800;9.05303100;2022-07-23T06:51:37;5.57;;;4.70;;
7823;SDS011;3957;48.61947800;9.05303100;2022-07-23T06:52:58;5.90;;;4.53;;
7823;SDS011;3957;48.61947800;9.05303100;2022-07-23T06:54:18;5.82;;;4.60;;
7823;SDS011;3957;48.61947800;9.05303100;2022-07-23T06:55:39;5.05;;;4.55;;
7823;SDS011;3957;48.61947800;9.05303100;2022-07-23T06:57:00;5.97;;;4.95;;
7823;SDS011;3957;48.61947800;9.05303100;2022-07-23T06:58:21;5.45;;;4.75;;
7823;SDS011;3957;48.61947800;9.05303100;2022-07-23T06:59:42;8.75;;;4.93;;
7823;SDS011;3957;48.61947800;9.05303100;2022-07-23T07:01:03;6.95;;;4.88;;
7823;SDS011;3957;48.61947800;9.05303100;2022-07-23T07:02:24;5.68;;;4.95;;
7823;SDS011;3957;48.61947800;9.05303100;2022-07-23T07:03:45;7.43;;;5.10;;
7823;SDS011;3957;48.61947800;9.05303100;2022-07-23T07:05:07;5.20;;;4.70;;
7823;SDS011;3957;48.61947800;9.05303100;2022-07-23T07:06:27;5.95;;;5.20;;
7823;SDS011;3957;48.61947800;9.05303100;2022-07-23T07:07:48;6.97;;;5.00;;
7823;SDS011;3957;48.61947800;9.05303100;2022-07-23T07:09:09;5.70;;;4.80;;
7823;SDS011;3957;48.61947800;9.05303100;2022-07-23T07:10:30;6.38;;;4.80;;
7823;SDS011;3957;48.61947800;9.05303100;2022-07-23T07:11:50;7.07;;;5.45;;
7823;SDS011;3957;48.61947800;9.05303100;2022-07-23T07:13:12;5.53;;;4.97;;
7823;SDS011;3957;48.61947800;9.05303100;2022-07-23T07:14:33;5.57;;;4.72;;
7823;SDS011;3957;48.61947800;9.05303100;2022-07-23T07:15:54;6.07;;;5.25;;
7823;SDS011;3957;48.61947800;9.05303100;2022-07-23T07:17:14;5.82;;;4.55;;
7823;SDS011;3957;48.61947800;9.05303100;2022-07-23T07:18:35;5.28;;;4.45;;
7823;SDS011;3957;48.61947800;9.05303100;2022-07-23T07:19:56;5.10;;;4.60;;